Time;durP1;ratioP1;P1;durP2;ratioP2;P2;SDS_P1;SDS_P2;PMS_P1;PMS_P2;Temp;Humidity;BMP_temperature;BMP_pressure;BME280_temperature;BME280_humidity;BME280_pressure;Samples;Min_cycle;Max_cycle;Signal;HPM_P1;HPM_P2
2021/10/18 00:01:33;;;;;;;8.15;2.90;;;;;;;;;;5060212;28;20028;-58
2021/10/18 00:03:58;;;;;;;6.35;3.17;;;;;;;;;;5051902;28;20036;-57
2021/10/18 00:06:24;;;;;;;7.28;3.35;;;;;;;;;;5061719;28;20102;-58
2021/10/18 00:08:49;;;;;;;8.38;2.65;;;;;;;;;;5053262;28;20446;-58
2021/10/18 00:11:15;;;;;;;9.50;2.92;;;;;;;;;;5051833;28;20207;-58
2021/10/18 00:13:40;;;;;;;8.82;2.78;;;;;;;;;;5061298;28;20033;-58
2021/10/18 00:16:06;;;;;;;5.15;2.97;;;;;;;;;;5053492;28;20086;-58
2021/10/18 00:18:31;;;;;;;7.50;3.00;;;;;;;;;;5053948;28;20059;-57
2021/10/18 00:20:57;;;;;;;7.85;2.95;;;;;;;;;;5054679;28;20153;-58
2021/10/18 00:23:22;;;;;;;6.63;2.58;;;;;;;;;;5053725;28;20115;-58
2021/10/18 00:25:48;;;;;;;7.63;2.72;;;;;;;;;;5057502;28;20028;-58
2021/10/18 00:28:14;;;;;;;5.03;2.53;;;;;;;;;;5051119;28;20043;-58
2021/10/18 00:30:39;;;;;;;3.65;2.20;;;;;;;;;;5053048;28;20036;-58
2021/10/18 00:33:05;;;;;;;4.32;2.10;;;;;;;;;;5058742;28;20033;-58
2021/10/18 00:35:30;;;;;;;7.07;2.47;;;;;;;;;;5052551;28;20561;-58
2021/10/18 00:37:56;;;;;;;4.63;2.35;;;;;;;;;;5037592;28;20456;-58
2021/10/18 00:40:22;;;;;;;9.00;2.75;;;;;;;;;;5049184;28;20043;-59
2021/10/18 00:42:50;;;;;;;3.72;2.47;;;;;;;;;;5058097;28;20025;-58
2021/10/18 00:45:15;;;;;;;5.95;2.40;;;;;;;;;;5060254;28;20460;-58
2021/10/18 00:47:41;;;;;;;6.43;2.83;;;;;;;;;;5056967;28;20072;-58
2021/10/18 00:50:08;;;;;;;5.90;2.45;;;;;;;;;;5055198;28;20032;-58
2021/10/18 00:52:35;;;;;;;7.70;2.78;;;;;;;;;;5056341;28;20107;-58
2021/10/18 00:55:01;;;;;;;5.82;2.20;;;;;;;;;;5054641;28;20087;-58
2021/10/18 00:57:27;;;;;;;6.05;2.33;;;;;;;;;;5057180;28;20036;-58
2021/10/18 00:59:54;;;;;;;4.38;2.20;;;;;;;;;;5054855;28;20456;-58
2021/10/18 01:02:19;;;;;;;6.35;2.33;;;;;;;;;;5078106;28;20027;-58
2021/10/18 01:04:45;;;;;;;5.22;2.45;;;;;;;;;;5071014;28;20040;-58
2021/10/18 01:07:11;;;;;;;8.70;2.30;;;;;;;;;;5077026;28;20451;-58
2021/10/18 01:09:37;;;;;;;6.57;2.80;;;;;;;;;;5075118;28;20487;-58
2021/10/18 01:12:03;;;;;;;3.75;2.40;;;;;;;;;;5073902;28;20036;-58
2021/10/18 01:14:28;;;;;;;6.40;2.15;;;;;;;;;;5076518;28;20482;-58
2021/10/18 01:16:54;;;;;;;6.68;2.95;;;;;;;;;;5080316;28;20510;-58
2021/10/18 01:19:23;;;;;;;4.97;2.45;;;;;;;;;;5077194;28;20024;-57
2021/10/18 01:21:57;;;;;;;6.95;3.15;;;;;;;;;;5075370;28;20024;-58
2021/10/18 01:24:23;;;;;;;5.72;2.90;;;;;;;;;;5080736;28;20093;-58
2021/10/18 01:26:49;;;;;;;11.15;3.03;;;;;;;;;;5077907;28;20024;-58
2021/10/18 01:29:14;;;;;;;5.15;2.72;;;;;;;;;;5075389;28;20097;-58
2021/10/18 01:31:40;;;;;;;7.65;2.83;;;;;;;;;;5082634;28;20032;-58
2021/10/18 01:34:06;;;;;;;6.97;2.90;;;;;;;;;;5076753;28;20032;-58
2021/10/18 01:36:33;;;;;;;8.40;3.50;;;;;;;;;;5079231;28;20028;-58
2021/10/18 01:38:59;;;;;;;8.57;3.33;;;;;;;;;;5078049;28;20368;-56
2021/10/18 01:41:24;;;;;;;4.95;2.85;;;;;;;;;;5082385;28;20036;-58
2021/10/18 01:43:50;;;;;;;7.45;3.25;;;;;;;;;;5075494;28;20055;-58
2021/10/18 01:46:15;;;;;;;12.45;3.65;;;;;;;;;;5076825;28;20047;-58
2021/10/18 01:48:41;;;;;;;5.32;2.72;;;;;;;;;;5080104;28;20032;-57
2021/10/18 01:51:09;;;;;;;7.50;3.40;;;;;;;;;;5073219;28;20494;-58
2021/10/18 01:53:36;;;;;;;6.90;3.63;;;;;;;;;;5082455;28;20107;-57
2021/10/18 01:56:02;;;;;;;10.45;3.50;;;;;;;;;;5079974;28;20482;-58
2021/10/18 01:58:31;;;;;;;9.75;3.35;;;;;;;;;;5078827;28;20039;-58
2021/10/18 02:00:58;;;;;;;5.90;3.47;;;;;;;;;;5056858;28;20033;-57
2021/10/18 02:03:23;;;;;;;6.50;2.90;;;;;;;;;;5073627;28;20028;-57
2021/10/18 02:05:48;;;;;;;5.80;2.83;;;;;;;;;;5080309;28;20245;-58
2021/10/18 02:08:14;;;;;;;5.25;3.38;;;;;;;;;;5074589;28;20037;-58
2021/10/18 02:10:40;;;;;;;10.95;3.55;;;;;;;;;;5078044;28;20028;-58
2021/10/18 02:13:05;;;;;;;5.15;3.20;;;;;;;;;;5077950;28;20036;-58
2021/10/18 02:15:31;;;;;;;6.47;3.20;;;;;;;;;;5074621;28;20039;-59
2021/10/18 02:17:57;;;;;;;7.00;3.20;;;;;;;;;;5076508;28;20114;-58
2021/10/18 02:20:22;;;;;;;6.35;3.45;;;;;;;;;;5074075;28;20050;-58
2021/10/18 02:22:48;;;;;;;5.82;3.17;;;;;;;;;;5075780;28;20036;-58
2021/10/18 02:25:14;;;;;;;8.00;3.50;;;;;;;;;;5073220;28;20129;-59
2021/10/18 02:27:40;;;;;;;6.53;3.53;;;;;;;;;;5079141;28;20032;-58
2021/10/18 02:30:07;;;;;;;12.45;3.38;;;;;;;;;;5078415;28;20070;-57
2021/10/18 02:32:33;;;;;;;6.68;3.72;;;;;;;;;;5073453;28;20036;-58
2021/10/18 02:34:58;;;;;;;8.80;4.30;;;;;;;;;;5078036;28;20028;-58
2021/10/18 02:37:24;;;;;;;10.23;4.00;;;;;;;;;;5075374;28;20498;-58
2021/10/18 02:39:49;;;;;;;14.50;3.70;;;;;;;;;;5078731;28;20097;-58
2021/10/18 02:42:16;;;;;;;12.98;4.60;;;;;;;;;;5074074;28;20036;-58
2021/10/18 02:44:41;;;;;;;14.27;4.45;;;;;;;;;;5074338;28;20472;-58
2021/10/18 02:47:08;;;;;;;13.18;3.92;;;;;;;;;;5079710;28;20032;-58
2021/10/18 02:49:34;;;;;;;9.27;4.07;;;;;;;;;;5077453;28;20037;-56
2021/10/18 02:52:00;;;;;;;9.75;4.05;;;;;;;;;;5079544;28;20036;-58
2021/10/18 02:54:25;;;;;;;10.10;3.80;;;;;;;;;;5059462;28;20029;-59
2021/10/18 02:56:51;;;;;;;9.65;3.90;;;;;;;;;;5075316;28;20051;-58
2021/10/18 02:59:16;;;;;;;11.23;4.07;;;;;;;;;;5082745;28;20040;-58
2021/10/18 03:01:42;;;;;;;8.63;4.30;;;;;;;;;;5080859;28;20042;-58
2021/10/18 03:04:07;;;;;;;12.57;4.45;;;;;;;;;;5079298;28;20158;-58
2021/10/18 03:06:32;;;;;;;10.77;4.38;;;;;;;;;;5073217;28;20483;-58
2021/10/18 03:08:59;;;;;;;10.98;4.30;;;;;;;;;;5075145;28;20078;-58
2021/10/18 03:11:25;;;;;;;13.20;3.85;;;;;;;;;;5074529;28;20024;-58
2021/10/18 03:13:50;;;;;;;8.93;4.30;;;;;;;;;;5060419;28;20028;-58
2021/10/18 03:16:16;;;;;;;14.10;4.82;;;;;;;;;;5058498;28;20398;-58
2021/10/18 03:18:42;;;;;;;7.65;3.97;;;;;;;;;;5076394;28;20038;-58
2021/10/18 03:21:07;;;;;;;9.13;4.20;;;;;;;;;;5072005;28;20056;-58
2021/10/18 03:23:32;;;;;;;14.07;4.90;;;;;;;;;;5080955;28;20036;-58
2021/10/18 03:25:58;;;;;;;11.77;4.82;;;;;;;;;;5077487;28;20170;-58
2021/10/18 03:28:23;;;;;;;12.68;4.30;;;;;;;;;;5071683;28;20028;-57
2021/10/18 03:30:49;;;;;;;9.18;4.82;;;;;;;;;;5075117;28;20027;-58
2021/10/18 03:33:15;;;;;;;10.43;4.28;;;;;;;;;;5080584;28;20035;-58
2021/10/18 03:35:40;;;;;;;8.90;5.32;;;;;;;;;;5065478;28;20112;-58
2021/10/18 03:38:06;;;;;;;11.77;4.88;;;;;;;;;;5076523;28;20025;-58
2021/10/18 03:40:31;;;;;;;11.18;4.78;;;;;;;;;;5075521;28;20031;-57
2021/10/18 03:42:57;;;;;;;11.88;5.40;;;;;;;;;;5073833;28;20047;-58
2021/10/18 03:45:23;;;;;;;13.00;5.30;;;;;;;;;;5074288;28;20383;-58
2021/10/18 03:47:48;;;;;;;12.00;5.18;;;;;;;;;;5073036;28;20028;-58
2021/10/18 03:50:15;;;;;;;8.18;4.75;;;;;;;;;;5075093;28;20039;-58
2021/10/18 03:52:41;;;;;;;10.02;4.55;;;;;;;;;;5072968;28;20035;-58
2021/10/18 03:55:07;;;;;;;15.68;5.07;;;;;;;;;;5075487;28;20036;-58
2021/10/18 03:57:33;;;;;;;12.18;4.22;;;;;;;;;;5077498;28;20103;-58
2021/10/18 03:59:58;;;;;;;9.30;4.18;;;;;;;;;;5074238;28;20044;-58
2021/10/18 04:02:24;;;;;;;10.02;4.40;;;;;;;;;;5075887;28;20107;-58
2021/10/18 04:04:49;;;;;;;10.18;4.93;;;;;;;;;;5072172;28;20118;-58
2021/10/18 04:07:14;;;;;;;10.02;4.53;;;;;;;;;;5074957;28;20433;-58
2021/10/18 04:09:40;;;;;;;17.00;5.10;;;;;;;;;;5069964;28;20042;-58
2021/10/18 04:12:06;;;;;;;12.65;4.78;;;;;;;;;;5070871;28;20036;-58
2021/10/18 04:14:32;;;;;;;10.15;4.03;;;;;;;;;;5075137;28;20025;-58
2021/10/18 04:16:58;;;;;;;13.38;4.07;;;;;;;;;;5073159;28;20036;-58
2021/10/18 04:19:23;;;;;;;11.32;3.90;;;;;;;;;;5075119;28;20028;-58
2021/10/18 04:21:49;;;;;;;14.23;4.50;;;;;;;;;;5073968;28;20549;-58
2021/10/18 04:24:14;;;;;;;14.43;4.50;;;;;;;;;;5070425;28;20035;-58
2021/10/18 04:26:40;;;;;;;6.20;3.15;;;;;;;;;;5075623;28;20028;-58
2021/10/18 04:29:07;;;;;;;10.57;3.63;;;;;;;;;;5072757;28;20039;-58
2021/10/18 04:31:33;;;;;;;12.73;4.43;;;;;;;;;;5073798;28;20525;-58
2021/10/18 04:34:00;;;;;;;6.03;3.97;;;;;;;;;;5073625;28;20031;-59
2021/10/18 04:36:26;;;;;;;12.32;4.68;;;;;;;;;;5071663;28;20386;-58
2021/10/18 04:38:52;;;;;;;15.23;3.63;;;;;;;;;;5070299;28;20047;-58
2021/10/18 04:41:18;;;;;;;16.30;4.38;;;;;;;;;;5052340;28;20039;-59
2021/10/18 04:43:43;;;;;;;10.40;4.47;;;;;;;;;;5072855;28;20044;-58
2021/10/18 04:46:09;;;;;;;16.15;4.50;;;;;;;;;;5070765;28;20036;-56
2021/10/18 04:48:34;;;;;;;19.33;5.03;;;;;;;;;;5072032;28;20127;-59
2021/10/18 04:51:00;;;;;;;18.10;4.63;;;;;;;;;;5055403;28;20063;-59
2021/10/18 04:53:26;;;;;;;12.02;4.78;;;;;;;;;;5073015;28;20052;-58
2021/10/18 04:55:51;;;;;;;9.90;4.38;;;;;;;;;;5073325;28;20036;-58
2021/10/18 04:58:17;;;;;;;9.40;4.00;;;;;;;;;;5076772;28;20513;-58
2021/10/18 05:00:45;;;;;;;8.35;4.97;;;;;;;;;;5074876;28;20030;-58
2021/10/18 05:03:11;;;;;;;8.02;4.65;;;;;;;;;;5073905;28;20036;-58
2021/10/18 05:05:38;;;;;;;12.80;4.03;;;;;;;;;;5074024;28;20126;-58
2021/10/18 05:08:09;;;;;;;9.57;3.55;;;;;;;;;;5075574;28;20479;-58
2021/10/18 05:10:36;;;;;;;7.38;3.10;;;;;;;;;;5078090;28;20103;-58
2021/10/18 05:13:03;;;;;;;4.70;2.50;;;;;;;;;;5072591;28;20119;-58
2021/10/18 05:15:29;;;;;;;5.05;2.33;;;;;;;;;;5077427;28;20035;-58
2021/10/18 05:17:55;;;;;;;5.70;2.90;;;;;;;;;;5077905;28;20044;-58
2021/10/18 05:20:20;;;;;;;6.38;2.78;;;;;;;;;;5078175;28;20036;-58
2021/10/18 05:22:46;;;;;;;4.63;1.98;;;;;;;;;;5069200;28;20036;-58
2021/10/18 05:25:12;;;;;;;3.88;1.70;;;;;;;;;;5071598;28;20041;-58
2021/10/18 05:27:38;;;;;;;2.45;1.90;;;;;;;;;;5071302;28;20107;-58
2021/10/18 05:30:08;;;;;;;1.33;0.77;;;;;;;;;;5072797;28;20050;-58
2021/10/18 05:32:34;;;;;;;5.00;1.30;;;;;;;;;;5073953;28;20021;-59
2021/10/18 05:34:59;;;;;;;1.92;0.88;;;;;;;;;;5075654;28;20032;-58
2021/10/18 05:37:25;;;;;;;0.70;0.60;;;;;;;;;;5077610;28;20097;-58
2021/10/18 05:39:50;;;;;;;1.75;0.43;;;;;;;;;;5071931;28;20390;-58
2021/10/18 05:42:17;;;;;;;2.70;0.50;;;;;;;;;;5078880;28;20043;-58
2021/10/18 05:44:43;;;;;;;0.70;0.50;;;;;;;;;;5073498;28;20503;-58
2021/10/18 05:47:09;;;;;;;0.55;0.47;;;;;;;;;;5076577;28;20075;-58
2021/10/18 05:49:35;;;;;;;0.52;0.43;;;;;;;;;;5054659;28;20452;-57
2021/10/18 05:52:01;;;;;;;0.88;0.40;;;;;;;;;;5069926;28;20043;-58
2021/10/18 05:54:27;;;;;;;1.23;0.40;;;;;;;;;;5074105;28;20043;-58
2021/10/18 05:56:52;;;;;;;0.82;0.50;;;;;;;;;;5079500;28;20028;-58
2021/10/18 05:59:19;;;;;;;1.30;0.38;;;;;;;;;;5072835;28;20032;-58
2021/10/18 06:01:44;;;;;;;0.30;0.30;;;;;;;;;;5074536;28;20046;-57
2021/10/18 06:04:10;;;;;;;0.35;0.35;;;;;;;;;;5079979;28;20041;-58
2021/10/18 06:06:36;;;;;;;1.02;0.30;;;;;;;;;;5081121;28;20079;-58
2021/10/18 06:09:03;;;;;;;1.48;0.50;;;;;;;;;;5080205;28;20085;-58
2021/10/18 06:11:29;;;;;;;0.43;0.30;;;;;;;;;;5080745;28;20091;-58
2021/10/18 06:13:54;;;;;;;2.17;0.32;;;;;;;;;;5076187;28;20024;-58
2021/10/18 06:16:20;;;;;;;0.63;0.28;;;;;;;;;;5080261;28;20276;-58
2021/10/18 06:18:45;;;;;;;0.22;0.22;;;;;;;;;;5074846;28;20491;-58
2021/10/18 06:21:11;;;;;;;0.50;0.30;;;;;;;;;;5074254;28;20040;-57
2021/10/18 06:23:36;;;;;;;0.22;0.22;;;;;;;;;;5073776;28;20109;-58
2021/10/18 06:26:02;;;;;;;0.45;0.40;;;;;;;;;;5074847;28;20453;-58
2021/10/18 06:28:27;;;;;;;0.30;0.30;;;;;;;;;;5079639;28;20062;-58
2021/10/18 06:30:53;;;;;;;0.43;0.20;;;;;;;;;;5075108;28;20036;-58
2021/10/18 06:33:24;;;;;;;0.55;0.20;;;;;;;;;;5053595;28;20368;-57
2021/10/18 06:35:50;;;;;;;0.20;0.20;;;;;;;;;;5074282;28;20491;-58
2021/10/18 06:38:17;;;;;;;0.73;0.30;;;;;;;;;;5071438;28;20028;-58
2021/10/18 06:40:44;;;;;;;0.30;0.25;;;;;;;;;;5078026;28;20031;-58
2021/10/18 06:43:10;;;;;;;0.20;0.20;;;;;;;;;;5058634;28;20028;-58
2021/10/18 06:45:36;;;;;;;0.30;0.20;;;;;;;;;;5078578;28;20032;-58
2021/10/18 06:48:01;;;;;;;0.22;0.15;;;;;;;;;;5082410;28;20134;-57
2021/10/18 06:50:29;;;;;;;0.93;0.20;;;;;;;;;;5079108;28;20024;-56
2021/10/18 06:52:55;;;;;;;1.10;0.20;;;;;;;;;;5074900;28;20499;-58
2021/10/18 06:55:22;;;;;;;11.50;0.40;;;;;;;;;;5069810;28;20477;-59
2021/10/18 06:57:47;;;;;;;1.48;0.30;;;;;;;;;;5075737;28;20397;-58
2021/10/18 07:00:13;;;;;;;0.95;0.40;;;;;;;;;;5075614;28;20040;-59
2021/10/18 07:02:39;;;;;;;1.38;0.43;;;;;;;;;;5076142;28;20028;-58
2021/10/18 07:05:05;;;;;;;0.52;0.30;;;;;;;;;;5070650;28;20047;-58
2021/10/18 07:07:31;;;;;;;0.30;0.30;;;;;;;;;;5048925;28;20032;-58
2021/10/18 07:10:00;;;;;;;0.73;0.25;;;;;;;;;;5074266;28;20275;-58
2021/10/18 07:12:31;;;;;;;0.40;0.40;;;;;;;;;;5071393;28;20012;-59
2021/10/18 07:14:57;;;;;;;0.30;0.30;;;;;;;;;;5075658;28;20031;-58
2021/10/18 07:17:24;;;;;;;0.60;0.30;;;;;;;;;;5075756;28;20032;-58
2021/10/18 07:19:50;;;;;;;1.80;0.40;;;;;;;;;;5057002;28;20376;-59
2021/10/18 07:22:20;;;;;;;2.17;0.98;;;;;;;;;;5072595;28;20043;-58
2021/10/18 07:24:46;;;;;;;0.38;0.20;;;;;;;;;;5075745;28;20036;-58
2021/10/18 07:27:12;;;;;;;0.90;0.50;;;;;;;;;;5068977;28;20035;-58
2021/10/18 07:29:38;;;;;;;2.45;0.40;;;;;;;;;;5076060;28;20294;-58
2021/10/18 07:32:05;;;;;;;1.00;0.30;;;;;;;;;;5039116;28;20032;-58
2021/10/18 07:34:30;;;;;;;0.25;0.22;;;;;;;;;;5072081;28;20025;-56
2021/10/18 07:36:56;;;;;;;3.88;0.50;;;;;;;;;;5074642;28;20038;-58
2021/10/18 07:39:24;;;;;;;1.67;0.30;;;;;;;;;;5056221;28;20068;-56
2021/10/18 07:41:52;;;;;;;0.40;0.22;;;;;;;;;;5072374;28;20521;-58
2021/10/18 07:44:19;;;;;;;0.82;0.60;;;;;;;;;;5072402;28;20090;-58
2021/10/18 07:46:45;;;;;;;0.25;0.20;;;;;;;;;;5079300;28;20028;-58
2021/10/18 07:49:12;;;;;;;0.20;0.20;;;;;;;;;;5074599;28;20037;-57
2021/10/18 07:51:37;;;;;;;1.77;0.47;;;;;;;;;;5074243;28;20054;-57
2021/10/18 07:54:03;;;;;;;1.17;0.30;;;;;;;;;;5076553;28;20538;-57
2021/10/18 07:56:29;;;;;;;0.35;0.35;;;;;;;;;;5077165;28;20098;-57
2021/10/18 07:58:55;;;;;;;1.38;0.45;;;;;;;;;;5076855;28;20024;-57
2021/10/18 08:01:20;;;;;;;1.15;0.38;;;;;;;;;;5072609;28;20062;-56
2021/10/18 08:03:46;;;;;;;0.50;0.40;;;;;;;;;;5075418;28;20411;-57
2021/10/18 08:06:11;;;;;;;0.57;0.30;;;;;;;;;;5078452;28;20040;-57
2021/10/18 08:08:44;;;;;;;1.25;0.50;;;;;;;;;;5070539;28;20039;-56
2021/10/18 08:11:11;;;;;;;2.55;1.27;;;;;;;;;;5085552;28;20062;-56
2021/10/18 08:13:37;;;;;;;2.00;0.60;;;;;;;;;;5076563;28;20028;-57
2021/10/18 08:16:03;;;;;;;5.40;0.60;;;;;;;;;;5080072;28;20051;-57
2021/10/18 08:18:29;;;;;;;0.90;0.40;;;;;;;;;;5082661;28;20056;-57
2021/10/18 08:20:54;;;;;;;0.93;0.40;;;;;;;;;;5080787;28;20120;-57
2021/10/18 08:23:20;;;;;;;1.02;0.40;;;;;;;;;;5080055;28;20039;-57
2021/10/18 08:25:45;;;;;;;1.02;0.60;;;;;;;;;;5076401;28;20104;-58
2021/10/18 08:28:12;;;;;;;2.72;0.40;;;;;;;;;;5068869;28;20093;-57
2021/10/18 08:30:38;;;;;;;0.80;0.38;;;;;;;;;;5073187;28;20032;-57
2021/10/18 08:33:03;;;;;;;0.40;0.30;;;;;;;;;;5077241;28;20108;-57
2021/10/18 08:35:29;;;;;;;0.90;0.35;;;;;;;;;;5081159;28;20099;-57
2021/10/18 08:40:44;;;;;;;3.35;0.43;;;;;;;;;;5079718;28;20038;-57
2021/10/18 08:45:40;;;;;;;0.40;0.30;;;;;;;;;;5080913;28;20071;-56
2021/10/18 08:48:09;;;;;;;0.63;0.20;;;;;;;;;;5078569;28;20027;-57
2021/10/18 08:50:36;;;;;;;1.17;0.88;;;;;;;;;;5054494;28;20036;-56
2021/10/18 08:53:02;;;;;;;0.17;0.10;;;;;;;;;;5079411;28;20504;-56
2021/10/18 08:55:28;;;;;;;0.60;0.15;;;;;;;;;;5075200;28;20067;-56
2021/10/18 08:57:53;;;;;;;0.22;0.22;;;;;;;;;;5077435;28;20064;-57
2021/10/18 09:00:48;;;;;;;0.10;0.10;;;;;;;;;;5079646;28;20398;-57
2021/10/18 09:03:20;;;;;;;0.35;0.20;;;;;;;;;;5076065;28;20024;-57
2021/10/18 09:05:46;;;;;;;0.30;0.20;;;;;;;;;;5072274;28;20083;-57
2021/10/18 09:08:32;;;;;;;0.20;0.20;;;;;;;;;;5074252;28;20028;-57
2021/10/18 09:11:12;;;;;;;0.98;0.20;;;;;;;;;;5072915;28;20035;-57
2021/10/18 09:13:43;;;;;;;0.10;0.10;;;;;;;;;;5074855;28;20095;-57
2021/10/18 09:16:11;;;;;;;0.10;0.10;;;;;;;;;;5077580;28;20160;-57
2021/10/18 09:18:38;;;;;;;0.10;0.10;;;;;;;;;;5071000;28;20029;-57
2021/10/18 09:21:04;;;;;;;0.80;0.10;;;;;;;;;;5078599;28;20035;-56
2021/10/18 09:23:37;;;;;;;0.10;0.10;;;;;;;;;;5082880;28;20387;-57
2021/10/18 09:26:08;;;;;;;1.85;0.13;;;;;;;;;;5071354;28;20043;-57
2021/10/18 09:28:34;;;;;;;0.10;0.10;;;;;;;;;;5071818;28;20024;-58
2021/10/18 09:31:00;;;;;;;0.25;0.10;;;;;;;;;;5059946;28;20054;-57
2021/10/18 09:33:36;;;;;;;0.47;0.13;;;;;;;;;;5075959;28;20539;-58
2021/10/18 09:36:05;;;;;;;0.52;0.10;;;;;;;;;;5072232;28;20024;-58
2021/10/18 09:38:31;;;;;;;0.15;0.10;;;;;;;;;;5081679;28;20490;-57
2021/10/18 09:40:59;;;;;;;0.10;0.10;;;;;;;;;;5084728;28;20049;-61
2021/10/18 09:43:34;;;;;;;0.15;0.10;;;;;;;;;;5066739;28;20085;-58
2021/10/18 10:53:54;;;;;;;0.00;0.00;;;;;;;;;;5076212;28;20042;-59
2021/10/18 10:56:43;;;;;;;0.25;0.00;;;;;;;;;;5072522;28;20037;-58
2021/10/18 10:59:23;;;;;;;1.85;0.00;;;;;;;;;;5074789;28;20051;-58
2021/10/18 11:01:54;;;;;;;0.00;0.00;;;;;;;;;;5075185;28;20034;-58
2021/10/18 11:04:32;;;;;;;0.07;0.00;;;;;;;;;;5080838;28;20118;-59
2021/10/18 11:07:10;;;;;;;12.27;0.65;;;;;;;;;;5077026;28;20023;-58
2021/10/18 11:09:46;;;;;;;0.00;0.00;;;;;;;;;;5077098;28;20036;-59
2021/10/18 11:12:17;;;;;;;0.00;0.00;;;;;;;;;;5075589;28;20039;-58
2021/10/18 11:14:55;;;;;;;0.80;0.00;;;;;;;;;;5078745;28;20111;-58
2021/10/18 11:17:23;;;;;;;0.00;0.00;;;;;;;;;;5078351;28;20040;-57
2021/10/18 11:20:16;;;;;;;0.00;0.00;;;;;;;;;;5072129;28;20036;-58
2021/10/18 11:22:44;;;;;;;0.00;0.00;;;;;;;;;;5071338;28;20305;-58
2021/10/18 11:25:12;;;;;;;0.00;0.00;;;;;;;;;;5063359;28;20250;-58
2021/10/18 11:27:40;;;;;;;0.00;0.00;;;;;;;;;;5064288;28;20047;-57
2021/10/18 11:30:09;;;;;;;0.00;0.00;;;;;;;;;;5081267;28;20541;-58
2021/10/18 11:32:36;;;;;;;0.03;0.00;;;;;;;;;;5079287;28;20031;-58
2021/10/18 11:35:09;;;;;;;0.00;0.00;;;;;;;;;;5079496;28;20016;-58
2021/10/18 11:37:55;;;;;;;0.25;0.00;;;;;;;;;;5074987;28;20558;-58
2021/10/18 11:40:49;;;;;;;0.00;0.00;;;;;;;;;;5074054;28;20029;-59
2021/10/18 11:43:19;;;;;;;0.10;0.00;;;;;;;;;;5077132;28;20196;-58
2021/10/18 11:45:47;;;;;;;0.00;0.00;;;;;;;;;;5074775;28;20032;-58
2021/10/18 11:48:21;;;;;;;2.72;0.00;;;;;;;;;;5068840;28;20068;-58
2021/10/18 11:50:52;;;;;;;1.55;0.00;;;;;;;;;;5074294;28;20498;-59
2021/10/18 11:53:22;;;;;;;0.00;0.00;;;;;;;;;;5073944;28;20025;-59
2021/10/18 11:55:49;;;;;;;0.20;0.10;;;;;;;;;;5072219;28;20032;-59
2021/10/18 11:58:27;;;;;;;0.30;0.00;;;;;;;;;;5058422;28;20119;-58
2021/10/18 12:01:03;;;;;;;0.00;0.00;;;;;;;;;;5082738;28;20028;-59
2021/10/18 12:03:32;;;;;;;0.80;0.00;;;;;;;;;;5074145;28;20074;-57
2021/10/18 12:05:59;;;;;;;0.00;0.00;;;;;;;;;;5076701;28;20027;-59
2021/10/18 12:08:33;;;;;;;0.00;0.00;;;;;;;;;;5074165;28;20035;-58
2021/10/18 12:11:00;;;;;;;0.13;0.00;;;;;;;;;;5079257;28;20877;-58
2021/10/18 12:13:30;;;;;;;0.00;0.00;;;;;;;;;;5071075;28;20088;-58
2021/10/18 12:16:02;;;;;;;0.35;0.00;;;;;;;;;;5075249;28;20029;-58
2021/10/18 12:18:48;;;;;;;1.25;0.00;;;;;;;;;;5073757;28;20051;-59
2021/10/18 12:21:29;;;;;;;0.17;0.00;;;;;;;;;;5077196;28;20032;-58
2021/10/18 12:24:01;;;;;;;0.00;0.00;;;;;;;;;;5073331;28;20404;-58
2021/10/18 12:26:31;;;;;;;0.20;0.00;;;;;;;;;;5071864;28;20032;-58
2021/10/18 12:29:05;;;;;;;1.88;0.00;;;;;;;;;;5085000;28;20074;-58
2021/10/18 12:31:46;;;;;;;0.00;0.00;;;;;;;;;;5075053;28;20113;-58
2021/10/18 12:34:18;;;;;;;6.35;0.10;;;;;;;;;;5078421;28;20035;-58
2021/10/18 12:36:49;;;;;;;7.68;0.10;;;;;;;;;;5074538;28;20054;-58
2021/10/18 12:39:40;;;;;;;0.03;0.00;;;;;;;;;;5075551;28;20032;-58
2021/10/18 12:42:08;;;;;;;0.50;0.00;;;;;;;;;;5076733;28;20043;-58
2021/10/18 12:44:45;;;;;;;0.43;0.00;;;;;;;;;;5074194;28;20056;-58
2021/10/18 12:47:14;;;;;;;0.00;0.00;;;;;;;;;;5077106;28;20130;-58
2021/10/18 12:49:43;;;;;;;0.30;0.00;;;;;;;;;;5075069;28;20036;-61
2021/10/18 12:52:10;;;;;;;1.48;0.08;;;;;;;;;;5052363;28;20637;-59
2021/10/18 12:54:44;;;;;;;0.10;0.00;;;;;;;;;;5068291;28;20483;-58
2021/10/18 12:57:14;;;;;;;0.10;0.03;;;;;;;;;;5074059;28;20548;-58
2021/10/18 12:59:59;;;;;;;0.50;0.10;;;;;;;;;;5075589;28;20032;-58
2021/10/18 13:02:26;;;;;;;0.68;0.10;;;;;;;;;;5077569;28;20036;-59
2021/10/18 13:05:05;;;;;;;1.75;0.10;;;;;;;;;;5076287;28;20500;-60
2021/10/18 13:07:31;;;;;;;3.13;0.10;;;;;;;;;;5072039;28;20032;-60
2021/10/18 13:09:57;;;;;;;3.10;0.00;;;;;;;;;;5075162;28;20035;-60
2021/10/18 13:12:25;;;;;;;0.17;0.10;;;;;;;;;;5083381;28;20036;-60
2021/10/18 13:14:55;;;;;;;0.90;0.10;;;;;;;;;;5076625;28;20059;-59
2021/10/18 13:17:22;;;;;;;1.55;0.00;;;;;;;;;;5075944;28;20433;-61
2021/10/18 13:19:47;;;;;;;2.03;0.05;;;;;;;;;;5074238;28;20051;-60
2021/10/18 13:22:13;;;;;;;0.20;0.00;;;;;;;;;;5076236;28;20533;-60
2021/10/18 13:24:38;;;;;;;0.00;0.00;;;;;;;;;;5077394;28;20024;-60
2021/10/18 13:27:05;;;;;;;0.70;0.10;;;;;;;;;;5075999;28;20043;-60
2021/10/18 13:29:31;;;;;;;0.70;0.10;;;;;;;;;;5072662;28;20483;-60
2021/10/18 13:31:57;;;;;;;1.50;0.15;;;;;;;;;;5076265;28;20040;-60
2021/10/18 13:34:23;;;;;;;2.17;0.20;;;;;;;;;;5078578;28;20085;-58
2021/10/18 13:36:48;;;;;;;1.00;0.20;;;;;;;;;;5075600;28;20111;-58
2021/10/18 13:39:14;;;;;;;0.63;0.10;;;;;;;;;;5081649;28;20169;-59
2021/10/18 13:41:39;;;;;;;0.43;0.20;;;;;;;;;;5080263;28;20070;-59
2021/10/18 13:44:07;;;;;;;0.28;0.17;;;;;;;;;;5042598;28;20136;-59
2021/10/18 13:46:33;;;;;;;2.38;0.15;;;;;;;;;;5079834;28;20501;-59
2021/10/18 13:48:59;;;;;;;0.20;0.10;;;;;;;;;;5076260;28;20037;-59
2021/10/18 13:51:24;;;;;;;0.20;0.10;;;;;;;;;;5077676;28;20059;-59
2021/10/18 13:53:51;;;;;;;1.08;0.20;;;;;;;;;;5074901;28;20075;-59
2021/10/18 13:56:17;;;;;;;0.20;0.13;;;;;;;;;;5075058;28;20121;-59
2021/10/18 13:58:43;;;;;;;0.38;0.10;;;;;;;;;;5078609;28;20024;-59
2021/10/18 14:01:08;;;;;;;5.63;0.20;;;;;;;;;;5060328;28;20488;-59
2021/10/18 14:03:34;;;;;;;0.80;0.20;;;;;;;;;;5075535;28;20085;-59
2021/10/18 14:05:59;;;;;;;1.60;0.20;;;;;;;;;;5081843;28;20036;-59
2021/10/18 14:08:25;;;;;;;1.52;0.10;;;;;;;;;;5075571;28;20067;-59
2021/10/18 14:10:50;;;;;;;0.63;0.10;;;;;;;;;;5070630;28;20086;-59
2021/10/18 14:13:16;;;;;;;0.50;0.10;;;;;;;;;;5076237;28;20035;-59
2021/10/18 14:15:42;;;;;;;0.85;0.30;;;;;;;;;;5079199;28;20039;-59
2021/10/18 14:18:07;;;;;;;0.85;0.40;;;;;;;;;;5075020;28;20033;-59
2021/10/18 14:20:33;;;;;;;2.33;0.20;;;;;;;;;;5079199;28;20058;-59
2021/10/18 14:22:58;;;;;;;1.30;0.40;;;;;;;;;;5075230;28;20422;-58
2021/10/18 14:25:24;;;;;;;0.47;0.20;;;;;;;;;;5078767;28;20395;-59
2021/10/18 14:27:49;;;;;;;0.75;0.10;;;;;;;;;;5079304;28;20029;-59
2021/10/18 14:30:15;;;;;;;3.85;0.30;;;;;;;;;;5072294;28;20090;-58
2021/10/18 14:32:41;;;;;;;0.40;0.20;;;;;;;;;;5076608;28;20131;-59
2021/10/18 14:35:07;;;;;;;0.95;0.45;;;;;;;;;;5058610;28;20080;-60
2021/10/18 14:37:33;;;;;;;0.47;0.20;;;;;;;;;;5074131;28;20552;-60
2021/10/18 14:39:58;;;;;;;0.50;0.30;;;;;;;;;;5075799;28;20040;-60
2021/10/18 14:42:24;;;;;;;2.45;0.60;;;;;;;;;;5072468;28;20020;-60
2021/10/18 14:44:50;;;;;;;1.65;0.40;;;;;;;;;;5083265;28;20067;-59
2021/10/18 14:47:15;;;;;;;1.15;0.30;;;;;;;;;;5079328;28;20029;-59
2021/10/18 14:49:41;;;;;;;2.88;0.20;;;;;;;;;;5077943;28;20101;-59
2021/10/18 14:52:06;;;;;;;1.00;0.10;;;;;;;;;;5080108;28;20036;-59
2021/10/18 14:54:32;;;;;;;0.25;0.20;;;;;;;;;;5063950;28;20380;-60
2021/10/18 14:56:57;;;;;;;0.80;0.10;;;;;;;;;;5081186;28;20063;-60
2021/10/18 14:59:23;;;;;;;0.40;0.20;;;;;;;;;;5084191;28;20031;-61
2021/10/18 15:01:48;;;;;;;0.57;0.20;;;;;;;;;;5080421;28;20024;-61
2021/10/18 15:04:14;;;;;;;2.17;0.10;;;;;;;;;;5078488;28;20893;-60
2021/10/18 15:06:40;;;;;;;0.90;0.20;;;;;;;;;;5081175;28;20032;-60
2021/10/18 15:09:06;;;;;;;0.90;0.20;;;;;;;;;;5062459;28;20073;-60
2021/10/18 15:11:32;;;;;;;0.35;0.20;;;;;;;;;;5080897;28;20028;-60
2021/10/18 15:14:03;;;;;;;1.35;0.20;;;;;;;;;;5079667;28;20028;-60
2021/10/18 15:16:29;;;;;;;1.58;0.28;;;;;;;;;;5074631;28;20096;-60
2021/10/18 15:18:55;;;;;;;0.82;0.15;;;;;;;;;;5078192;28;20028;-60
2021/10/18 15:21:20;;;;;;;0.50;0.30;;;;;;;;;;5071588;28;20060;-60
2021/10/18 15:23:46;;;;;;;1.58;0.30;;;;;;;;;;5059744;28;20510;-60
2021/10/18 15:26:12;;;;;;;0.32;0.10;;;;;;;;;;5080011;28;20037;-60
2021/10/18 15:28:37;;;;;;;3.55;0.30;;;;;;;;;;5074795;28;20032;-60
2021/10/18 15:31:05;;;;;;;1.02;0.30;;;;;;;;;;5072184;28;20107;-60
2021/10/18 15:33:30;;;;;;;2.67;0.28;;;;;;;;;;5075464;28;20036;-60
2021/10/18 15:35:56;;;;;;;1.75;0.30;;;;;;;;;;5076053;28;20024;-58
2021/10/18 15:38:22;;;;;;;0.75;0.30;;;;;;;;;;5075943;28;20028;-60
2021/10/18 15:40:47;;;;;;;0.70;0.25;;;;;;;;;;5081156;28;20024;-58
2021/10/18 15:43:13;;;;;;;1.13;0.30;;;;;;;;;;5081383;28;20378;-59
2021/10/18 15:45:38;;;;;;;0.70;0.30;;;;;;;;;;5078664;28;20052;-59
2021/10/18 15:48:05;;;;;;;3.92;0.40;;;;;;;;;;5081499;28;20041;-58
2021/10/18 15:50:32;;;;;;;2.10;0.22;;;;;;;;;;5084090;28;20031;-59
2021/10/18 15:52:58;;;;;;;1.98;0.40;;;;;;;;;;5077439;28;20491;-59
2021/10/18 15:55:23;;;;;;;3.85;0.60;;;;;;;;;;5078277;28;20036;-58